Time;durP1;ratioP1;P1;durP2;ratioP2;P2;SDS_P1;SDS_P2;PMS_P1;PMS_P2;Temp;Humidity;BMP_temperature;BMP_pressure;BME280_temperature;BME280_humidity;BME280_pressure;Samples;Min_cycle;Max_cycle;Signal;HPM_P1;HPM_P2
2022/02/26 00:01:07;;;;;;;1.88;0.30;;;3.80;92.50;;;;;;5052099;28;20495;-74
2022/02/26 00:03:35;;;;;;;3.23;0.30;;;3.70;92.50;;;;;;5017893;28;20238;-74
2022/02/26 00:06:03;;;;;;;1.60;0.30;;;3.80;92.60;;;;;;5018059;28;20067;-74
2022/02/26 00:08:30;;;;;;;2.58;0.20;;;3.70;92.60;;;;;;5034395;28;20066;-74
2022/02/26 00:10:57;;;;;;;3.15;0.40;;;3.70;92.60;;;;;;5001292;28;20358;-74
2022/02/26 00:13:25;;;;;;;1.60;0.40;;;3.70;92.60;;;;;;5017558;28;20432;-74
2022/02/26 00:15:52;;;;;;;2.03;0.38;;;3.70;92.60;;;;;;5017410;28;20102;-74
2022/02/26 00:18:19;;;;;;;4.57;0.40;;;3.70;92.60;;;;;;5051628;28;20075;-74
2022/02/26 00:20:46;;;;;;;2.05;0.30;;;3.70;92.60;;;;;;5018076;28;20036;-74
2022/02/26 00:23:13;;;;;;;2.35;0.45;;;3.60;92.60;;;;;;5033659;28;20137;-74
2022/02/26 00:25:40;;;;;;;1.08;0.28;;;3.60;92.70;;;;;;5017311;28;20049;-74
2022/02/26 00:28:08;;;;;;;3.13;0.30;;;3.60;92.70;;;;;;5033892;28;20072;-74
2022/02/26 00:30:35;;;;;;;3.50;0.80;;;3.60;92.80;;;;;;5033820;28;20045;-74
2022/02/26 00:33:02;;;;;;;2.03;0.30;;;3.60;92.80;;;;;;5033835;28;20045;-74
2022/02/26 00:35:29;;;;;;;2.28;0.40;;;3.60;92.80;;;;;;5014432;28;20118;-74
2022/02/26 00:37:56;;;;;;;3.38;0.30;;;3.50;92.80;;;;;;5037203;28;20036;-74
2022/02/26 00:40:23;;;;;;;2.33;0.32;;;3.50;92.80;;;;;;5037603;28;20438;-74
2022/02/26 00:42:50;;;;;;;3.72;0.57;;;3.50;92.80;;;;;;5020924;28;20443;-74
2022/02/26 00:45:17;;;;;;;1.25;0.30;;;3.50;92.80;;;;;;5020973;28;20401;-74
2022/02/26 00:47:46;;;;;;;0.50;0.20;;;3.50;93.10;;;;;;5038104;28;20055;-75
2022/02/26 00:50:13;;;;;;;2.55;0.25;;;3.40;92.90;;;;;;5053561;28;20048;-74
2022/02/26 00:52:40;;;;;;;1.40;0.40;;;3.40;92.90;;;;;;5037225;28;20048;-74
2022/02/26 00:55:09;;;;;;;3.17;0.40;;;3.30;92.90;;;;;;5071443;28;20365;-74
2022/02/26 00:57:36;;;;;;;1.67;0.47;;;3.30;93.00;;;;;;5053394;28;20135;-74
2022/02/26 01:00:07;;;;;;;2.78;0.30;;;3.30;93.00;;;;;;5054061;28;20070;-75
2022/02/26 01:02:34;;;;;;;1.48;0.50;;;3.30;93.00;;;;;;5076114;28;20047;-75
2022/02/26 01:05:03;;;;;;;1.85;0.50;;;3.30;93.00;;;;;;5057089;28;20045;-74
2022/02/26 01:07:30;;;;;;;1.35;0.30;;;3.20;93.00;;;;;;5075189;28;20493;-74
2022/02/26 01:09:57;;;;;;;1.55;0.20;;;3.20;93.00;;;;;;5040671;28;20500;-74
2022/02/26 01:12:28;;;;;;;1.45;0.30;;;3.10;93.00;;;;;;5057236;28;20041;-74
2022/02/26 01:14:55;;;;;;;0.88;0.22;;;3.20;93.10;;;;;;5024276;28;20048;-74
2022/02/26 01:17:22;;;;;;;1.85;0.32;;;3.10;93.10;;;;;;5024057;28;20074;-74
2022/02/26 01:19:50;;;;;;;0.68;0.30;;;3.10;93.10;;;;;;5057173;28;20040;-74
2022/02/26 01:22:17;;;;;;;2.10;0.30;;;3.10;93.10;;;;;;5040650;28;20457;-74
2022/02/26 01:24:45;;;;;;;1.70;0.50;;;3.10;93.40;;;;;;5040519;28;20047;-74
2022/02/26 01:27:11;;;;;;;2.28;0.38;;;3.00;93.10;;;;;;5074817;28;20549;-74
2022/02/26 01:29:38;;;;;;;1.13;0.30;;;3.00;93.10;;;;;;5056886;28;20044;-74
2022/02/26 01:32:06;;;;;;;2.45;0.35;;;3.00;93.10;;;;;;5040236;28;20057;-74
2022/02/26 01:34:35;;;;;;;3.30;0.57;;;3.00;93.20;;;;;;5040017;28;20151;-73
2022/02/26 01:37:07;;;;;;;1.30;0.28;;;2.90;93.20;;;;;;5056748;28;20044;-74
2022/02/26 01:39:34;;;;;;;1.75;0.40;;;2.90;93.20;;;;;;5074655;28;20044;-74
2022/02/26 01:42:02;;;;;;;1.70;0.40;;;2.80;93.30;;;;;;5056998;28;20499;-74
2022/02/26 01:44:29;;;;;;;3.17;0.43;;;2.80;93.30;;;;;;5074712;28;20059;-74
2022/02/26 01:46:57;;;;;;;1.67;0.40;;;2.70;93.30;;;;;;5056800;28;20050;-74
2022/02/26 01:49:25;;;;;;;2.67;0.70;;;2.60;93.30;;;;;;5039823;28;20052;-74
2022/02/26 01:51:52;;;;;;;1.73;0.23;;;2.60;93.30;;;;;;5023694;28;20079;-79
2022/02/26 01:54:19;;;;;;;1.10;0.20;;;2.60;93.40;;;;;;5075082;28;20036;-79
2022/02/26 01:56:46;;;;;;;3.03;0.30;;;2.50;93.40;;;;;;5074933;28;20044;-79
2022/02/26 01:59:13;;;;;;;2.23;0.40;;;2.50;93.40;;;;;;5051017;28;20062;-79
2022/02/26 02:01:40;;;;;;;2.08;0.40;;;2.50;93.50;;;;;;5060598;28;20068;-81
2022/02/26 02:04:08;;;;;;;0.47;0.10;;;2.40;93.40;;;;;;5094973;28;20067;-79
2022/02/26 02:06:37;;;;;;;2.87;0.20;;;2.40;93.40;;;;;;5060590;28;20044;-79
2022/02/26 02:09:05;;;;;;;1.98;0.30;;;2.40;93.40;;;;;;5060359;28;20582;-79
2022/02/26 02:11:35;;;;;;;0.90;0.20;;;2.40;93.50;;;;;;5059818;28;20040;-79
2022/02/26 02:14:03;;;;;;;1.25;0.25;;;2.40;93.50;;;;;;5076768;28;20067;-79
2022/02/26 02:16:34;;;;;;;2.57;0.37;;;2.30;93.50;;;;;;5094712;28;20051;-79
2022/02/26 02:19:08;;;;;;;3.63;0.40;;;2.30;93.50;;;;;;5076591;28;20101;-79
2022/02/26 02:21:36;;;;;;;0.57;0.20;;;2.30;93.50;;;;;;5094088;28;20068;-80
2022/02/26 02:24:04;;;;;;;1.97;0.30;;;2.30;93.60;;;;;;5075947;28;20051;-79
2022/02/26 02:26:33;;;;;;;2.03;0.40;;;2.20;93.50;;;;;;5076053;28;20104;-79
2022/02/26 02:29:01;;;;;;;0.97;0.20;;;2.20;93.60;;;;;;5094717;28;20040;-79
2022/02/26 02:31:29;;;;;;;1.00;0.30;;;2.20;93.50;;;;;;5059791;28;20105;-79
2022/02/26 02:33:57;;;;;;;0.93;0.30;;;2.10;93.50;;;;;;5075197;28;20467;-80
2022/02/26 02:36:23;;;;;;;1.13;0.40;;;2.10;93.60;;;;;;5040062;28;20074;-79
2022/02/26 02:38:51;;;;;;;0.68;0.30;;;2.10;93.60;;;;;;5039731;28;20094;-79
2022/02/26 02:41:18;;;;;;;0.90;0.20;;;2.10;93.60;;;;;;5074096;28;20115;-80
2022/02/26 02:43:46;;;;;;;2.83;0.50;;;2.00;93.60;;;;;;5056394;28;20484;-79
2022/02/26 02:46:13;;;;;;;4.90;0.50;;;2.00;93.60;;;;;;5056083;28;20396;-80
2022/02/26 02:48:40;;;;;;;1.15;0.35;;;2.00;93.60;;;;;;5023445;28;20044;-74
2022/02/26 02:51:07;;;;;;;1.30;0.30;;;2.00;93.60;;;;;;5022774;28;20135;-74
2022/02/26 02:53:34;;;;;;;1.97;0.40;;;1.90;93.60;;;;;;5073122;28;20052;-74
2022/02/26 02:56:01;;;;;;;2.17;0.40;;;1.90;93.60;;;;;;5055286;28;20044;-75
2022/02/26 02:58:34;;;;;;;2.15;0.20;;;1.90;93.50;;;;;;5023625;28;20040;-74
2022/02/26 03:01:04;;;;;;;4.73;0.40;;;1.90;93.60;;;;;;5055067;28;20076;-74
2022/02/26 03:03:32;;;;;;;3.10;0.40;;;1.90;93.60;;;;;;5073001;28;20040;-74
2022/02/26 03:05:59;;;;;;;1.33;0.77;;;1.90;93.70;;;;;;5022191;28;20076;-74
2022/02/26 03:08:26;;;;;;;3.73;0.30;;;1.90;93.60;;;;;;5055412;28;20094;-74
2022/02/26 03:10:55;;;;;;;2.37;0.40;;;1.90;93.60;;;;;;5072978;28;20447;-74
2022/02/26 03:13:24;;;;;;;2.40;0.40;;;1.80;93.60;;;;;;5073132;28;20040;-79
2022/02/26 03:15:53;;;;;;;2.63;0.43;;;1.80;93.90;;;;;;5073269;28;20051;-80
2022/02/26 03:18:21;;;;;;;1.23;0.30;;;1.80;93.70;;;;;;5073051;28;20094;-79
2022/02/26 03:20:49;;;;;;;1.20;0.30;;;1.70;93.70;;;;;;5039065;28;20075;-79
2022/02/26 03:23:17;;;;;;;2.03;0.70;;;1.70;93.70;;;;;;5054549;28;20044;-79
2022/02/26 03:25:45;;;;;;;4.37;0.57;;;1.70;93.70;;;;;;5038238;28;20044;-79
2022/02/26 03:28:12;;;;;;;2.53;0.60;;;1.70;93.80;;;;;;5038651;28;20739;-79
2022/02/26 03:30:40;;;;;;;1.20;0.40;;;1.70;93.70;;;;;;5038468;28;20056;-79
2022/02/26 03:33:07;;;;;;;0.40;0.30;;;1.70;93.70;;;;;;5055242;28;20041;-79
2022/02/26 03:35:34;;;;;;;2.23;0.50;;;1.60;93.70;;;;;;5052741;28;20049;-80
2022/02/26 03:38:01;;;;;;;1.57;0.50;;;1.60;93.70;;;;;;5058275;28;20131;-79
2022/02/26 03:40:33;;;;;;;0.97;0.40;;;1.60;93.70;;;;;;5093117;28;20465;-79
2022/02/26 03:43:00;;;;;;;2.70;0.53;;;1.50;93.70;;;;;;5058421;28;20036;-79
2022/02/26 03:45:27;;;;;;;1.60;0.50;;;1.50;93.70;;;;;;5075061;28;20051;-80
2022/02/26 03:47:54;;;;;;;1.23;0.30;;;1.50;93.70;;;;;;5093205;28;20039;-79
2022/02/26 03:50:22;;;;;;;2.20;0.40;;;1.50;93.70;;;;;;5059147;28;20548;-79
2022/02/26 03:52:49;;;;;;;1.50;0.40;;;1.50;93.70;;;;;;5075332;28;20459;-79
2022/02/26 03:55:18;;;;;;;3.67;0.50;;;1.50;93.70;;;;;;5058529;28;20495;-80
2022/02/26 03:57:46;;;;;;;3.10;0.70;;;1.40;93.70;;;;;;5058212;28;20070;-80
2022/02/26 04:00:15;;;;;;;2.40;0.60;;;1.40;93.80;;;;;;5092959;28;20437;-79
2022/02/26 04:02:44;;;;;;;1.10;0.40;;;1.40;93.80;;;;;;5074617;28;20139;-79
2022/02/26 04:05:12;;;;;;;2.97;0.70;;;1.40;93.80;;;;;;5074994;28;20043;-80
2022/02/26 04:07:42;;;;;;;1.23;0.50;;;1.40;93.80;;;;;;5058932;28;20048;-80
2022/02/26 04:10:10;;;;;;;2.63;0.60;;;1.40;93.80;;;;;;5058467;28;20086;-80
2022/02/26 04:12:37;;;;;;;0.83;0.40;;;1.50;93.80;;;;;;5058262;28;20052;-80
2022/02/26 04:15:06;;;;;;;2.93;0.60;;;1.50;93.80;;;;;;5093032;28;20479;-79
2022/02/26 04:17:32;;;;;;;2.47;0.60;;;1.50;93.80;;;;;;5074451;28;20076;-79
2022/02/26 04:19:59;;;;;;;1.33;0.47;;;1.50;93.80;;;;;;5058078;28;20040;-79
2022/02/26 04:22:28;;;;;;;2.97;0.57;;;1.50;93.90;;;;;;5075019;28;20036;-80
2022/02/26 04:24:55;;;;;;;3.10;0.80;;;1.50;93.90;;;;;;5074434;28;20040;-79
2022/02/26 04:27:22;;;;;;;3.67;1.00;;;1.50;93.90;;;;;;5092513;28;20052;-79
2022/02/26 04:29:49;;;;;;;6.67;1.10;;;1.50;93.90;;;;;;5074398;28;20464;-79
2022/02/26 04:32:38;;;;;;;3.13;0.97;;;1.60;93.90;;;;;;5077673;28;20052;-79
2022/02/26 04:35:08;;;;;;;3.43;1.13;;;1.60;93.80;;;;;;5076729;28;20469;-80
2022/02/26 04:37:35;;;;;;;6.30;1.37;;;1.70;93.80;;;;;;5081188;28;20109;-80
2022/02/26 04:40:03;;;;;;;2.90;1.10;;;1.70;93.70;;;;;;5064347;28;20484;-79
2022/02/26 04:42:30;;;;;;;5.50;2.33;;;1.80;93.80;;;;;;5064297;28;20036;-79
2022/02/26 04:44:57;;;;;;;2.87;1.40;;;1.80;93.70;;;;;;5064681;28;20044;-80
2022/02/26 04:47:24;;;;;;;6.17;1.80;;;1.80;93.70;;;;;;5065213;28;20127;-79
2022/02/26 04:49:54;;;;;;;6.00;2.27;;;1.90;93.70;;;;;;5064605;28;20102;-80
2022/02/26 04:52:21;;;;;;;3.67;2.03;;;1.90;93.80;;;;;;5064675;28;20047;-79
2022/02/26 04:54:48;;;;;;;4.10;1.80;;;1.90;93.70;;;;;;5047998;28;20040;-80
2022/02/26 04:57:15;;;;;;;6.17;2.10;;;1.90;93.70;;;;;;5080367;28;20048;-79
2022/02/26 04:59:45;;;;;;;4.40;1.90;;;1.90;93.70;;;;;;5081293;28;20032;-79
2022/02/26 05:02:15;;;;;;;5.83;2.40;;;1.90;93.80;;;;;;5080858;28;20055;-79
2022/02/26 05:04:42;;;;;;;4.00;2.03;;;1.90;93.70;;;;;;5081249;28;20036;-74
2022/02/26 05:07:12;;;;;;;4.97;2.07;;;2.00;94.00;;;;;;5063621;28;20051;-74
2022/02/26 05:09:39;;;;;;;3.73;1.57;;;1.90;93.70;;;;;;5047354;28;20565;-74
2022/02/26 05:12:09;;;;;;;3.83;1.13;;;2.00;93.80;;;;;;5047548;28;20037;-74
2022/02/26 05:14:36;;;;;;;3.13;1.33;;;2.00;93.80;;;;;;5063432;28;20093;-74
2022/02/26 05:17:04;;;;;;;3.60;1.37;;;2.10;93.80;;;;;;5063555;28;20044;-74
2022/02/26 05:19:31;;;;;;;3.20;1.47;;;2.10;93.80;;;;;;5063383;28;20105;-74
2022/02/26 05:21:58;;;;;;;3.90;1.90;;;2.10;93.80;;;;;;5080346;28;20093;-74
2022/02/26 05:24:25;;;;;;;2.93;1.23;;;2.10;93.80;;;;;;5063563;28;20042;-74
2022/02/26 05:26:52;;;;;;;2.63;1.33;;;2.10;93.80;;;;;;5080285;28;20063;-74
2022/02/26 05:29:20;;;;;;;20.50;2.03;;;2.20;93.80;;;;;;5046918;28;20044;-74
2022/02/26 05:31:50;;;;;;;2.57;1.27;;;2.20;93.80;;;;;;5063837;28;20086;-79
2022/02/26 05:34:17;;;;;;;2.60;1.27;;;2.20;93.80;;;;;;5079101;28;20044;-79
2022/02/26 05:36:44;;;;;;;2.50;0.95;;;2.20;93.80;;;;;;5011513;28;20057;-80
2022/02/26 05:39:12;;;;;;;3.10;1.40;;;2.20;93.80;;;;;;5060687;28;20033;-79
2022/02/26 05:41:39;;;;;;;2.80;1.50;;;2.20;93.80;;;;;;5052741;28;20047;-79
2022/02/26 05:44:06;;;;;;;2.27;1.27;;;2.20;93.80;;;;;;5050286;28;20044;-80
2022/02/26 05:46:34;;;;;;;2.77;1.23;;;2.20;93.80;;;;;;5042109;28;20119;-80
2022/02/26 05:49:02;;;;;;;1.90;0.83;;;2.20;93.80;;;;;;5057685;28;20552;-79
2022/02/26 05:51:29;;;;;;;2.78;0.90;;;2.20;93.80;;;;;;5075067;28;20488;-79
2022/02/26 05:53:56;;;;;;;2.20;1.03;;;2.20;93.90;;;;;;5057535;28;20136;-80
2022/02/26 05:56:23;;;;;;;2.03;1.10;;;2.20;93.80;;;;;;5074974;28;20044;-79
2022/02/26 05:58:50;;;;;;;2.30;1.10;;;2.20;93.80;;;;;;5040655;28;20037;-80
2022/02/26 06:01:17;;;;;;;3.20;1.30;;;2.20;93.80;;;;;;5023969;28;20044;-80
2022/02/26 06:03:44;;;;;;;3.73;1.57;;;2.20;93.90;;;;;;5074787;28;20071;-79
2022/02/26 06:06:12;;;;;;;2.53;1.10;;;2.20;93.90;;;;;;5056974;28;20052;-80
2022/02/26 06:08:39;;;;;;;2.40;1.10;;;2.20;93.90;;;;;;5057029;28;20040;-80
2022/02/26 06:11:06;;;;;;;1.97;1.20;;;2.20;93.90;;;;;;5040204;28;20558;-80
2022/02/26 06:13:33;;;;;;;2.13;0.80;;;2.20;93.90;;;;;;5056413;28;20076;-80
2022/02/26 06:16:00;;;;;;;2.75;1.25;;;2.20;94.00;;;;;;5054868;28;20044;-81
2022/02/26 06:18:28;;;;;;;1.90;1.03;;;2.20;94.00;;;;;;5074271;28;20071;-80
2022/02/26 06:20:55;;;;;;;2.00;1.00;;;2.20;94.00;;;;;;5039686;28;20049;-80
2022/02/26 06:23:22;;;;;;;2.40;1.27;;;2.20;93.90;;;;;;5056748;28;20063;-80
2022/02/26 06:25:49;;;;;;;2.25;1.20;;;2.20;93.90;;;;;;5056163;28;20051;-78
2022/02/26 06:28:19;;;;;;;2.80;1.20;;;2.10;93.90;;;;;;5058843;28;20045;-80
2022/02/26 06:30:46;;;;;;;2.50;1.27;;;2.10;93.90;;;;;;5037184;28;20048;-82
2022/02/26 06:33:14;;;;;;;1.90;1.13;;;2.10;94.00;;;;;;5020484;28;20405;-85
2022/02/26 06:35:44;;;;;;;2.30;1.35;;;2.10;94.00;;;;;;5050871;28;20091;-79
2022/02/26 06:38:13;;;;;;;2.17;1.00;;;2.10;94.00;;;;;;5040643;28;20047;-79
2022/02/26 06:40:41;;;;;;;2.40;1.00;;;2.10;94.00;;;;;;5074389;28;20037;-79
2022/02/26 06:43:08;;;;;;;2.50;1.07;;;2.10;94.00;;;;;;5074055;28;20400;-82
2022/02/26 06:45:35;;;;;;;3.20;1.30;;;2.10;94.00;;;;;;5039825;28;20116;-82
2022/02/26 06:48:02;;;;;;;3.07;1.40;;;2.10;94.00;;;;;;5040063;28;20045;-83
2022/02/26 06:50:30;;;;;;;3.30;1.43;;;2.10;94.10;;;;;;5023481;28;20743;-82
2022/02/26 06:52:58;;;;;;;2.53;1.40;;;2.10;94.10;;;;;;5056961;28;20047;-81
2022/02/26 06:55:25;;;;;;;2.33;1.20;;;2.10;94.10;;;;;;5023990;28;20079;-81
2022/02/26 06:57:52;;;;;;;2.87;1.50;;;2.00;94.20;;;;;;5056112;28;20051;-81
2022/02/26 07:00:19;;;;;;;2.50;1.20;;;2.10;94.20;;;;;;5023270;28;20094;-79
2022/02/26 07:02:46;;;;;;;2.03;0.93;;;2.10;94.20;;;;;;5039838;28;20036;-82
2022/02/26 07:05:14;;;;;;;2.07;1.13;;;2.00;94.10;;;;;;5074337;28;20041;-82
2022/02/26 07:07:41;;;;;;;2.03;1.10;;;2.00;94.10;;;;;;5023568;28;20036;-82
2022/02/26 07:10:08;;;;;;;2.47;1.03;;;2.00;94.20;;;;;;5055909;28;20048;-82
2022/02/26 07:12:37;;;;;;;2.20;1.20;;;2.00;94.20;;;;;;5039814;28;20538;-82
2022/02/26 07:15:05;;;;;;;2.53;1.20;;;2.00;94.20;;;;;;5056295;28;20127;-83
2022/02/26 07:17:35;;;;;;;2.40;1.03;;;2.00;94.20;;;;;;5023722;28;20067;-81
2022/02/26 07:20:03;;;;;;;2.80;1.33;;;2.00;94.20;;;;;;5039261;28;20036;-81
2022/02/26 07:22:30;;;;;;;3.07;1.30;;;2.00;94.20;;;;;;5022817;28;20334;-81
2022/02/26 07:24:57;;;;;;;2.87;1.20;;;2.00;94.20;;;;;;5039088;28;20048;-81
2022/02/26 07:27:27;;;;;;;2.43;1.20;;;2.00;94.20;;;;;;5039418;28;20473;-81
2022/02/26 07:29:54;;;;;;;2.90;1.70;;;2.00;94.20;;;;;;5039586;28;20037;-81
2022/02/26 07:32:24;;;;;;;2.08;1.48;;;2.00;94.20;;;;;;5022392;28;20052;-81
2022/02/26 07:34:51;;;;;;;3.73;2.00;;;2.00;94.20;;;;;;5022166;28;20114;-81
2022/02/26 07:37:23;;;;;;;2.60;1.80;;;2.00;94.20;;;;;;5039012;28;20052;-83
2022/02/26 07:39:55;;;;;;;2.57;1.40;;;2.00;94.20;;;;;;5055476;28;20442;-81
2022/02/26 07:42:22;;;;;;;2.03;1.07;;;2.00;94.20;;;;;;5022679;28;20507;-82
2022/02/26 07:44:49;;;;;;;2.33;1.23;;;2.00;94.20;;;;;;5022179;28;20097;-82
2022/02/26 07:50:40;;;;;;;2.00;0.93;;;2.10;94.10;;;;;;5073034;28;20040;-79
2022/02/26 07:53:07;;;;;;;2.57;1.30;;;2.10;94.20;;;;;;5074344;28;20063;-79
2022/02/26 07:55:37;;;;;;;2.37;1.20;;;2.10;94.10;;;;;;5093230;28;20806;-79
2022/02/26 07:58:05;;;;;;;2.03;1.00;;;2.10;94.10;;;;;;5074847;28;20044;-79
2022/02/26 08:00:33;;;;;;;1.50;0.90;;;2.10;94.00;;;;;;5092982;28;20115;-79
2022/02/26 08:03:03;;;;;;;1.93;0.80;;;2.20;94.00;;;;;;5058320;28;20456;-78
2022/02/26 08:05:30;;;;;;;1.83;0.97;;;2.20;94.00;;;;;;5058059;28;20079;-79
2022/02/26 08:08:00;;;;;;;1.70;1.03;;;2.20;94.10;;;;;;5074936;28;20109;-79
2022/02/26 08:10:28;;;;;;;1.63;0.97;;;2.20;94.10;;;;;;5092336;28;20539;-79
2022/02/26 08:12:57;;;;;;;1.93;0.97;;;2.30;94.10;;;;;;5058155;28;20138;-79
2022/02/26 08:15:26;;;;;;;2.13;1.03;;;2.30;94.10;;;;;;5092672;28;20464;-79
2022/02/26 08:17:55;;;;;;;1.73;0.77;;;2.40;94.10;;;;;;5074866;28;20404;-79
2022/02/26 08:20:25;;;;;;;2.83;1.20;;;2.40;94.10;;;;;;5075257;28;20472;-80
2022/02/26 08:22:55;;;;;;;2.37;1.10;;;2.50;94.10;;;;;;5092651;28;20036;-79
2022/02/26 08:25:22;;;;;;;2.17;1.30;;;2.50;94.00;;;;;;5074760;28;20039;-79
2022/02/26 08:27:50;;;;;;;2.70;1.50;;;2.60;94.10;;;;;;5057800;28;20091;-79
2022/02/26 08:30:18;;;;;;;2.77;1.43;;;2.60;94.00;;;;;;5074574;28;20044;-80
2022/02/26 08:32:46;;;;;;;3.73;1.80;;;2.70;94.00;;;;;;5073702;28;20097;-79
2022/02/26 08:35:15;;;;;;;2.67;1.70;;;2.70;94.00;;;;;;5083023;28;20492;-79
2022/02/26 08:37:47;;;;;;;2.60;1.20;;;2.80;94.00;;;;;;5072542;28;20060;-79
2022/02/26 08:40:16;;;;;;;3.33;1.53;;;2.80;94.00;;;;;;5054177;28;20037;-79
2022/02/26 08:42:47;;;;;;;2.72;1.40;;;2.90;94.30;;;;;;5054175;28;20094;-79
2022/02/26 08:45:16;;;;;;;3.17;2.00;;;3.00;94.00;;;;;;5072326;28;20090;-79
2022/02/26 08:47:43;;;;;;;2.72;1.50;;;3.10;94.00;;;;;;5054384;28;20037;-80
2022/02/26 08:50:17;;;;;;;2.35;1.17;;;3.10;94.00;;;;;;5054389;28;20040;-80
2022/02/26 08:52:44;;;;;;;3.17;1.67;;;3.20;93.90;;;;;;5072191;28;20445;-79
2022/02/26 08:55:11;;;;;;;3.47;1.80;;;3.30;93.90;;;;;;5053918;28;20052;-80
2022/02/26 08:57:41;;;;;;;2.92;1.67;;;3.30;93.90;;;;;;5037808;28;20044;-79
2022/02/26 09:00:11;;;;;;;3.20;1.25;;;3.40;93.90;;;;;;5054243;28;20481;-79
2022/02/26 09:02:38;;;;;;;3.07;1.63;;;3.40;93.90;;;;;;5054412;28;20052;-79
2022/02/26 09:05:11;;;;;;;2.67;1.38;;;3.50;93.90;;;;;;5054427;28;20042;-80
2022/02/26 09:07:41;;;;;;;3.50;1.67;;;3.50;93.90;;;;;;5037744;28;20562;-79
2022/02/26 09:10:09;;;;;;;3.47;2.10;;;3.60;93.90;;;;;;5037602;28;20045;-79
2022/02/26 09:12:37;;;;;;;3.15;2.10;;;3.60;93.90;;;;;;5054199;28;20055;-79
2022/02/26 09:15:07;;;;;;;5.38;3.17;;;3.70;93.80;;;;;;5071792;28;20037;-79
2022/02/26 09:17:35;;;;;;;3.47;2.42;;;3.80;93.80;;;;;;5071844;28;20045;-80
2022/02/26 09:20:03;;;;;;;3.95;2.35;;;3.80;93.80;;;;;;5053783;28;20044;-80
2022/02/26 09:22:33;;;;;;;3.85;2.33;;;3.80;93.80;;;;;;5039992;28;20120;-79
2022/02/26 09:25:01;;;;;;;3.53;1.90;;;3.80;93.80;;;;;;5057487;28;20435;-79
2022/02/26 09:27:28;;;;;;;4.63;1.88;;;3.90;93.80;;;;;;5041184;28;20562;-79
2022/02/26 09:29:55;;;;;;;3.40;1.50;;;3.90;93.80;;;;;;5057711;28;20062;-79
2022/02/26 09:32:23;;;;;;;3.13;1.92;;;4.00;93.80;;;;;;5075329;28;20067;-79
2022/02/26 09:34:50;;;;;;;4.15;2.08;;;4.00;93.80;;;;;;5046987;28;20063;-79
2022/02/26 09:37:17;;;;;;;3.60;2.25;;;4.10;93.80;;;;;;5076635;28;20048;-79
2022/02/26 09:39:44;;;;;;;4.55;1.80;;;4.10;93.80;;;;;;5060053;28;20044;-79
2022/02/26 09:42:11;;;;;;;3.00;1.58;;;4.10;93.70;;;;;;5076898;28;20036;-79
2022/02/26 09:44:38;;;;;;;2.95;1.67;;;4.20;93.80;;;;;;5060590;28;20051;-79
2022/02/26 09:47:06;;;;;;;4.97;2.10;;;4.20;93.80;;;;;;5095501;28;20195;-81
2022/02/26 09:49:33;;;;;;;3.45;1.70;;;4.30;93.80;;;;;;5044229;28;20063;-80
2022/02/26 09:52:01;;;;;;;5.50;2.47;;;4.30;93.70;;;;;;5077055;28;20051;-79
2022/02/26 09:54:28;;;;;;;4.55;2.20;;;4.40;93.70;;;;;;5077130;28;20044;-80
2022/02/26 09:56:55;;;;;;;3.80;2.03;;;4.40;93.70;;;;;;5060375;28;20078;-80
2022/02/26 09:59:22;;;;;;;4.75;1.65;;;4.50;93.70;;;;;;5060375;28;20098;-82
2022/02/26 10:01:56;;;;;;;3.80;2.05;;;4.50;93.70;;;;;;5043745;28;20065;-82
2022/02/26 10:04:25;;;;;;;5.43;2.40;;;4.50;93.70;;;;;;5077093;28;20032;-82
2022/02/26 10:07:13;;;;;;;2.85;1.75;;;4.60;93.70;;;;;;5076977;28;20032;-82
2022/02/26 10:09:44;;;;;;;5.10;2.58;;;4.70;93.70;;;;;;5060507;28;20071;-81
2022/02/26 10:12:24;;;;;;;4.15;2.30;;;4.70;93.70;;;;;;5060704;28;20067;-81
2022/02/26 10:14:54;;;;;;;5.63;2.50;;;4.80;93.60;;;;;;5095198;28;20345;-82
2022/02/26 10:17:28;;;;;;;3.72;2.30;;;4.90;93.60;;;;;;5076587;28;20052;-82
2022/02/26 10:20:12;;;;;;;4.93;2.42;;;4.90;93.60;;;;;;5059699;28;20055;-81
2022/02/26 10:22:54;;;;;;;4.32;1.90;;;5.00;93.60;;;;;;5077636;28;20450;-81
2022/02/26 10:25:28;;;;;;;2.95;1.30;;;5.10;93.50;;;;;;5076546;28;20342;-81
2022/02/26 10:28:00;;;;;;;2.67;1.30;;;5.10;93.50;;;;;;5076463;28;20047;-81
2022/02/26 10:30:37;;;;;;;2.05;1.02;;;5.20;93.60;;;;;;5077040;28;20040;-79
2022/02/26 10:33:04;;;;;;;2.40;1.00;;;5.20;93.50;;;;;;5058586;28;20464;-79
2022/02/26 10:36:05;;;;;;;1.60;0.90;;;5.20;93.50;;;;;;5064076;28;20056;-79
2022/02/26 10:38:36;;;;;;;3.50;1.40;;;5.30;93.50;;;;;;5040058;28;20130;-80
2022/02/26 10:41:10;;;;;;;1.80;0.55;;;5.30;93.50;;;;;;5035572;28;20048;-79
2022/02/26 10:43:48;;;;;;;3.90;0.60;;;5.40;93.50;;;;;;5036287;28;20559;-81
2022/02/26 10:46:33;;;;;;;4.03;1.52;;;5.40;93.50;;;;;;5019658;28;20048;-81
2022/02/26 10:49:05;;;;;;;4.20;1.00;;;5.50;93.40;;;;;;5035990;28;20041;-84
2022/02/26 10:51:40;;;;;;;5.10;0.98;;;5.50;93.40;;;;;;5020938;28;20080;-81
2022/02/26 10:54:23;;;;;;;1.67;0.60;;;5.60;93.40;;;;;;5019514;28;20049;-81
2022/02/26 10:56:59;;;;;;;2.13;0.70;;;5.70;93.30;;;;;;5036049;28;20041;-81
2022/02/26 10:59:28;;;;;;;1.80;0.60;;;5.70;93.20;;;;;;5035778;28;20060;-82
2022/02/26 11:02:02;;;;;;;4.00;0.75;;;5.70;93.20;;;;;;5053691;28;20037;-81
2022/02/26 11:04:39;;;;;;;3.72;0.30;;;5.70;93.20;;;;;;5035656;28;20041;-81
2022/02/26 11:07:06;;;;;;;1.77;0.40;;;5.80;93.20;;;;;;5019378;28;20505;-82
2022/02/26 11:09:38;;;;;;;1.15;0.40;;;5.80;93.20;;;;;;5019440;28;20075;-81
2022/02/26 11:12:14;;;;;;;2.40;0.60;;;5.80;93.20;;;;;;5053530;28;20049;-81
2022/02/26 11:14:46;;;;;;;2.28;0.40;;;5.90;93.10;;;;;;5019293;28;20045;-81
2022/02/26 11:17:22;;;;;;;2.45;0.70;;;5.90;93.10;;;;;;5053194;28;20477;-81
2022/02/26 11:19:55;;;;;;;2.78;0.90;;;6.00;93.00;;;;;;5019797;28;20099;-81
2022/02/26 11:22:24;;;;;;;5.00;1.40;;;6.10;93.00;;;;;;5018805;28;20052;-81
2022/02/26 11:24:53;;;;;;;6.35;1.65;;;6.20;92.90;;;;;;5018892;28;20060;-79
2022/02/26 11:27:25;;;;;;;4.72;0.90;;;6.20;92.70;;;;;;5053483;28;20044;-79
2022/02/26 11:29:54;;;;;;;3.17;0.80;;;6.20;92.60;;;;;;5035401;28;20068;-81
2022/02/26 11:32:25;;;;;;;3.22;1.02;;;6.20;92.90;;;;;;5035345;28;20049;-81
2022/02/26 11:35:26;;;;;;;2.22;0.60;;;6.30;92.60;;;;;;5018368;28;20057;-81
2022/02/26 11:38:03;;;;;;;1.90;0.43;;;6.30;92.80;;;;;;5035111;28;20111;-80
2022/02/26 11:40:31;;;;;;;3.47;0.70;;;6.30;92.60;;;;;;5034585;28;20389;-76
2022/02/26 11:42:59;;;;;;;3.58;0.60;;;6.30;92.40;;;;;;5017949;28;20284;-76
2022/02/26 11:45:32;;;;;;;1.58;0.60;;;6.50;92.20;;;;;;5051822;28;20135;-75
2022/02/26 11:48:08;;;;;;;5.03;0.70;;;6.60;92.10;;;;;;5035021;28;20071;-76
2022/02/26 11:50:38;;;;;;;3.97;0.95;;;6.60;92.00;;;;;;5018710;28;20049;-76
2022/02/26 11:53:15;;;;;;;3.17;0.50;;;6.60;91.90;;;;;;5034847;28;20051;-76
2022/02/26 11:55:53;;;;;;;2.13;0.52;;;6.60;91.90;;;;;;5034662;28;20143;-76
2022/02/26 11:58:31;;;;;;;2.45;0.50;;;6.80;91.90;;;;;;5034520;28;20041;-75
2022/02/26 12:01:16;;;;;;;4.32;0.90;;;6.80;92.00;;;;;;5034514;28;20124;-75
2022/02/26 12:03:45;;;;;;;4.05;0.50;;;7.00;91.70;;;;;;5034622;28;20044;-76
2022/02/26 12:06:12;;;;;;;1.58;0.30;;;7.00;91.70;;;;;;5035021;28;20136;-83
2022/02/26 12:08:48;;;;;;;2.70;0.40;;;7.10;91.70;;;;;;5034733;28;20099;-82
2022/02/26 12:11:30;;;;;;;2.78;0.90;;;7.20;91.50;;;;;;5018497;28;20049;-84
2022/02/26 12:14:02;;;;;;;2.15;0.35;;;7.20;91.40;;;;;;5051297;28;20120;-81
2022/02/26 12:16:40;;;;;;;2.25;0.38;;;7.20;91.30;;;;;;5052477;28;20178;-81
2022/02/26 12:19:20;;;;;;;2.90;0.35;;;7.20;91.20;;;;;;5034539;28;20049;-80
2022/02/26 12:22:03;;;;;;;2.78;0.40;;;7.20;91.30;;;;;;5018140;28;20132;-81
2022/02/26 12:24:32;;;;;;;2.97;0.85;;;7.20;91.20;;;;;;5052330;28;20508;-81
2022/02/26 12:27:09;;;;;;;1.10;0.30;;;7.30;91.00;;;;;;5034201;28;20045;-80
2022/02/26 12:29:39;;;;;;;1.75;0.32;;;7.30;91.00;;;;;;5018356;28;20076;-79
2022/02/26 12:32:14;;;;;;;2.83;0.43;;;7.30;90.90;;;;;;5034341;28;20405;-80
2022/02/26 12:35:10;;;;;;;2.92;0.60;;;7.30;90.80;;;;;;5052073;28;20079;-83
2022/02/26 12:37:41;;;;;;;2.03;0.60;;;7.30;90.60;;;;;;5018114;28;20148;-78
2022/02/26 12:40:19;;;;;;;1.30;0.30;;;7.30;90.70;;;;;;5018116;28;20138;-77
2022/02/26 12:42:48;;;;;;;2.22;0.43;;;7.30;90.70;;;;;;5034600;28;20071;-77
2022/02/26 12:45:19;;;;;;;3.90;0.75;;;7.30;90.60;;;;;;5034219;28;20409;-75
2022/02/26 12:47:47;;;;;;;2.80;0.70;;;7.40;90.60;;;;;;5018476;28;20047;-77
2022/02/26 12:50:17;;;;;;;4.18;0.70;;;7.40;90.50;;;;;;5018127;28;20410;-78
2022/02/26 12:52:45;;;;;;;4.53;0.55;;;7.50;90.50;;;;;;5001462;28;20060;-77
2022/02/26 12:55:17;;;;;;;3.25;1.00;;;7.60;90.40;;;;;;5017299;28;20053;-75
2022/02/26 12:57:47;;;;;;;1.73;0.43;;;7.80;90.10;;;;;;5020531;28;20053;-73
2022/02/26 13:00:21;;;;;;;3.08;1.02;;;7.90;90.10;;;;;;5055088;28;20405;-73
2022/02/26 13:02:59;;;;;;;3.20;0.80;;;8.00;90.00;;;;;;5037096;28;20045;-73
2022/02/26 13:05:37;;;;;;;5.57;0.60;;;8.10;89.80;;;;;;5020855;28;20071;-74
2022/02/26 13:08:10;;;;;;;3.45;0.55;;;8.10;89.40;;;;;;5020717;28;20076;-73
2022/02/26 13:10:44;;;;;;;6.47;1.00;;;8.20;89.70;;;;;;5055000;28;20444;-73
2022/02/26 13:13:17;;;;;;;3.67;0.80;;;8.30;88.60;;;;;;5036977;28;20169;-74